Time;durP1;ratioP1;P1;durP2;ratioP2;P2;SDS_P1;SDS_P2;PMS_P1;PMS_P2;Temp;Humidity;BMP_temperature;BMP_pressure;BME280_temperature;BME280_humidity;BME280_pressure;Samples;Min_cycle;Max_cycle;Signal;HPM_P1;HPM_P2
2023/05/13 03:06:28;;;;;;;17.47;16.77;;;12.50;99.90;;;;;;5424936;23;20515;-79
2023/05/13 03:08:54;;;;;;;16.07;15.37;;;12.40;99.90;;;;;;4954612;29;20993;-80
2023/05/13 03:11:21;;;;;;;15.87;15.17;;;12.50;99.90;;;;;;4959542;28;20937;-77
2023/05/13 03:13:48;;;;;;;16.43;15.60;;;12.30;99.90;;;;;;4973343;28;20514;-79
2023/05/13 03:16:14;;;;;;;15.93;15.23;;;12.40;99.90;;;;;;4973225;28;20448;-80
2023/05/13 03:18:41;;;;;;;16.03;15.30;;;12.20;99.90;;;;;;4973151;28;20443;-78
2023/05/13 03:21:08;;;;;;;16.20;15.50;;;12.20;99.90;;;;;;4973124;28;20448;-79
2023/05/13 03:23:36;;;;;;;16.30;15.43;;;12.10;99.90;;;;;;4975044;28;20455;-80
2023/05/13 03:26:03;;;;;;;16.00;15.20;;;12.10;99.90;;;;;;4973083;28;20494;-80
2023/05/13 03:28:29;;;;;;;16.27;15.57;;;12.40;99.90;;;;;;4973746;28;21294;-79
2023/05/13 03:30:56;;;;;;;16.00;15.30;;;12.30;99.90;;;;;;4974525;28;20526;-79
2023/05/13 03:33:23;;;;;;;14.63;13.93;;;12.10;99.90;;;;;;4974576;28;20459;-78
2023/05/13 03:35:49;;;;;;;16.00;15.30;;;12.10;99.90;;;;;;4974359;28;20456;-81
2023/05/13 03:38:16;;;;;;;17.60;16.73;;;12.10;99.90;;;;;;4974652;28;20462;-81
2023/05/13 03:40:44;;;;;;;16.50;15.80;;;12.10;99.90;;;;;;4975054;28;20451;-79
2023/05/13 03:43:11;;;;;;;17.07;16.10;;;12.10;99.90;;;;;;4973921;28;20482;-79
2023/05/13 03:45:37;;;;;;;16.67;15.87;;;12.60;99.90;;;;;;4974263;28;20459;-81
2023/05/13 03:48:05;;;;;;;17.47;16.37;;;12.10;99.90;;;;;;4974166;28;20562;-81
2023/05/13 03:50:31;;;;;;;15.60;14.90;;;12.10;99.90;;;;;;4973995;28;20463;-80
2023/05/13 03:52:58;;;;;;;16.40;15.57;;;12.30;99.90;;;;;;4974738;28;20459;-80
2023/05/13 03:55:24;;;;;;;16.33;15.63;;;12.00;99.90;;;;;;4974750;28;20487;-80
2023/05/13 03:57:52;;;;;;;16.10;15.40;;;12.10;99.90;;;;;;4976052;28;20451;-76
2023/05/13 04:00:19;;;;;;;16.30;15.60;;;12.20;99.90;;;;;;4974136;28;20456;-77
2023/05/13 04:02:46;;;;;;;16.23;15.33;;;12.50;99.90;;;;;;4974113;28;20872;-80
2023/05/13 04:05:13;;;;;;;16.47;15.57;;;12.40;99.90;;;;;;4959920;28;20480;-80
2023/05/13 04:07:40;;;;;;;15.60;14.90;;;12.30;99.90;;;;;;4954914;29;20539;-80
2023/05/13 04:10:07;;;;;;;17.80;16.90;;;12.70;99.90;;;;;;4955238;29;20495;-82
2023/05/13 04:12:34;;;;;;;16.83;16.00;;;12.30;99.90;;;;;;4954219;28;20453;-81
2023/05/13 04:15:02;;;;;;;15.80;15.07;;;12.40;99.90;;;;;;4954293;29;20904;-81
2023/05/13 04:17:29;;;;;;;16.03;15.43;;;12.30;99.90;;;;;;4953958;29;20804;-80
2023/05/13 04:19:55;;;;;;;17.57;16.70;;;12.30;99.90;;;;;;4954070;29;20994;-80
2023/05/13 04:22:24;;;;;;;15.40;14.70;;;12.30;99.90;;;;;;4955335;29;20453;-80
2023/05/13 04:24:55;;;;;;;17.33;16.13;;;12.40;99.90;;;;;;4957229;29;20444;-83
2023/05/13 04:27:22;;;;;;;17.07;16.17;;;12.40;99.90;;;;;;4961306;29;20461;-81
2023/05/13 04:29:48;;;;;;;15.47;14.83;;;12.50;99.90;;;;;;4961539;29;20456;-82
2023/05/13 04:32:20;;;;;;;15.17;14.57;;;12.50;99.90;;;;;;4961969;29;20452;-81
2023/05/13 04:34:47;;;;;;;15.77;15.07;;;12.40;99.90;;;;;;4960475;29;20456;-81
2023/05/13 04:37:13;;;;;;;16.63;15.83;;;12.40;99.90;;;;;;4955273;29;20452;-81
2023/05/13 04:39:40;;;;;;;15.43;14.83;;;12.40;99.90;;;;;;4953716;29;20453;-82
2023/05/13 04:42:07;;;;;;;16.17;15.37;;;12.40;99.90;;;;;;4953987;29;20515;-82
2023/05/13 04:44:34;;;;;;;16.60;15.60;;;12.40;99.90;;;;;;4958597;29;20461;-81
2023/05/13 04:47:01;;;;;;;14.30;13.60;;;12.30;99.90;;;;;;4958187;29;20527;-81
2023/05/13 04:49:28;;;;;;;14.47;13.53;;;12.20;99.90;;;;;;4953837;29;20488;-80
2023/05/13 04:51:56;;;;;;;14.43;13.80;;;12.20;99.90;;;;;;4954543;29;20448;-82
2023/05/13 04:54:22;;;;;;;15.20;14.60;;;12.30;99.90;;;;;;4954196;29;20452;-82
2023/05/13 04:56:49;;;;;;;14.93;14.23;;;12.60;99.90;;;;;;4953954;29;20887;-84
2023/05/13 04:59:17;;;;;;;15.70;15.00;;;12.30;99.90;;;;;;4953673;29;20452;-82
2023/05/13 05:01:43;;;;;;;15.20;14.50;;;12.30;99.90;;;;;;4953434;29;20816;-82
2023/05/13 05:04:12;;;;;;;14.47;13.77;;;12.30;99.90;;;;;;4953268;28;20813;-80
2023/05/13 05:06:40;;;;;;;14.90;14.13;;;12.40;99.90;;;;;;4953354;29;20512;-81
2023/05/13 05:09:06;;;;;;;16.13;15.37;;;12.50;99.90;;;;;;4953527;29;20496;-82
2023/05/13 05:11:33;;;;;;;15.27;14.57;;;12.60;99.90;;;;;;4953165;29;20452;-83
2023/05/13 05:14:00;;;;;;;16.20;15.40;;;12.60;99.90;;;;;;4953268;29;20457;-83
2023/05/13 05:16:26;;;;;;;15.37;14.63;;;12.60;99.90;;;;;;4962663;29;20512;-82
2023/05/13 05:18:53;;;;;;;14.93;14.33;;;12.80;99.90;;;;;;4953582;29;20457;-83
2023/05/13 05:21:20;;;;;;;14.70;14.10;;;12.40;99.90;;;;;;4951261;29;20863;-82
2023/05/13 05:23:48;;;;;;;15.87;15.07;;;12.60;99.90;;;;;;4952401;28;20457;-81
2023/05/13 05:26:15;;;;;;;14.70;13.90;;;12.60;99.90;;;;;;4952924;29;20460;-82
2023/05/13 05:28:42;;;;;;;16.80;15.80;;;12.70;99.90;;;;;;4952439;29;20488;-81
2023/05/13 05:31:09;;;;;;;16.00;15.13;;;12.80;99.90;;;;;;4952688;29;20452;-82
2023/05/13 05:33:36;;;;;;;16.60;15.70;;;12.60;99.90;;;;;;4952750;29;21025;-82
2023/05/13 05:36:03;;;;;;;16.00;15.20;;;12.60;99.90;;;;;;4952471;29;20788;-82
2023/05/13 05:38:29;;;;;;;16.23;15.40;;;12.80;99.90;;;;;;4952320;29;20448;-82
2023/05/13 05:40:57;;;;;;;15.70;14.80;;;12.70;99.90;;;;;;4953697;29;20460;-81
2023/05/13 05:43:24;;;;;;;14.93;14.20;;;12.70;99.90;;;;;;4952468;29;20452;-82
2023/05/13 05:45:51;;;;;;;15.67;14.87;;;12.80;99.90;;;;;;4952562;29;20462;-82
2023/05/13 05:48:17;;;;;;;15.10;14.40;;;12.70;99.90;;;;;;4952048;29;20496;-82
2023/05/13 05:50:44;;;;;;;16.30;15.27;;;12.90;99.90;;;;;;4952241;29;20456;-82
2023/05/13 05:53:11;;;;;;;15.60;14.60;;;13.00;99.90;;;;;;4951926;29;20456;-81
2023/05/13 05:55:38;;;;;;;16.67;15.77;;;13.00;99.90;;;;;;4946451;29;20507;-81
2023/05/13 05:58:06;;;;;;;14.53;13.93;;;13.00;99.90;;;;;;4951927;29;20927;-81
2023/05/13 06:00:33;;;;;;;15.03;14.20;;;13.00;99.90;;;;;;4954265;29;20460;-82
2023/05/13 06:02:59;;;;;;;15.00;14.30;;;13.10;99.90;;;;;;4953900;29;20947;-82
2023/05/13 06:05:26;;;;;;;14.63;14.03;;;13.20;99.90;;;;;;4953530;28;20500;-82
2023/05/13 06:07:53;;;;;;;15.50;14.73;;;12.90;99.90;;;;;;4952521;29;20507;-81
2023/05/13 06:10:19;;;;;;;15.43;14.70;;;13.20;99.90;;;;;;4954833;29;20483;-83
2023/05/13 06:12:46;;;;;;;14.37;13.77;;;13.00;99.90;;;;;;4955841;29;20464;-82
2023/05/13 06:15:14;;;;;;;14.50;13.90;;;13.10;99.90;;;;;;4951936;29;20533;-81
2023/05/13 06:17:41;;;;;;;14.90;14.07;;;13.00;99.90;;;;;;4951674;29;20837;-83
2023/05/13 06:20:08;;;;;;;15.27;14.47;;;12.90;99.90;;;;;;4951774;29;21002;-83
2023/05/13 06:22:35;;;;;;;15.10;14.50;;;13.10;99.90;;;;;;4951929;29;20473;-83
2023/05/13 06:25:01;;;;;;;14.73;14.03;;;13.00;99.90;;;;;;4951630;29;20568;-83
2023/05/13 06:27:28;;;;;;;14.80;14.17;;;13.10;99.90;;;;;;4951974;29;21009;-83
2023/05/13 06:29:55;;;;;;;15.43;14.73;;;13.10;99.90;;;;;;4951653;29;20973;-83
2023/05/13 06:32:23;;;;;;;16.10;15.30;;;13.30;99.90;;;;;;4951628;29;20865;-82
2023/05/13 06:34:51;;;;;;;16.60;15.70;;;13.00;99.90;;;;;;4951746;29;20483;-83
2023/05/13 06:37:18;;;;;;;15.67;15.00;;;13.10;99.90;;;;;;4953415;28;20461;-82
2023/05/13 06:39:45;;;;;;;15.20;14.50;;;13.20;99.90;;;;;;4955809;29;20711;-82
2023/05/13 06:42:12;;;;;;;15.40;14.37;;;13.50;99.90;;;;;;4934620;29;20828;-83
2023/05/13 06:44:39;;;;;;;15.80;15.00;;;13.60;99.90;;;;;;4922301;29;20513;-83
2023/05/13 06:47:05;;;;;;;16.10;15.30;;;13.60;99.90;;;;;;4917829;29;20952;-82
2023/05/13 06:49:34;;;;;;;15.87;14.87;;;13.60;99.90;;;;;;4917591;29;20497;-82
2023/05/13 06:52:00;;;;;;;15.10;14.40;;;13.80;99.90;;;;;;4917552;29;21023;-82
2023/05/13 06:54:27;;;;;;;15.53;14.83;;;14.10;99.90;;;;;;4917495;29;20485;-83
2023/05/13 06:56:54;;;;;;;14.83;14.23;;;14.20;99.90;;;;;;4915958;29;20466;-83
2023/05/13 06:59:21;;;;;;;16.23;14.87;;;14.10;99.90;;;;;;4918338;29;20459;-82
2023/05/13 07:01:48;;;;;;;15.10;14.40;;;14.20;99.90;;;;;;4920089;29;20957;-83
2023/05/13 07:04:15;;;;;;;14.50;13.80;;;14.60;99.90;;;;;;4919824;29;20485;-82
2023/05/13 07:06:43;;;;;;;14.70;13.90;;;14.80;99.90;;;;;;4920198;29;20565;-82
2023/05/13 07:09:09;;;;;;;15.13;14.33;;;15.00;99.90;;;;;;4917319;29;20894;-83
2023/05/13 07:11:36;;;;;;;13.30;12.80;;;15.00;99.90;;;;;;4917699;29;20817;-84
2023/05/13 07:14:03;;;;;;;14.77;14.17;;;14.70;99.90;;;;;;4917621;29;20454;-83
2023/05/13 07:16:29;;;;;;;15.07;14.27;;;14.80;99.90;;;;;;4916988;29;20470;-82
2023/05/13 07:18:56;;;;;;;13.57;12.70;;;14.90;99.90;;;;;;4917004;29;20959;-84
2023/05/13 07:21:23;;;;;;;13.30;12.70;;;14.90;99.90;;;;;;4917285;29;20834;-84
2023/05/13 07:23:51;;;;;;;14.20;13.50;;;14.80;99.90;;;;;;4916829;29;20873;-84
2023/05/13 07:26:17;;;;;;;14.90;14.07;;;14.80;99.90;;;;;;4916575;29;20458;-82
2023/05/13 07:28:44;;;;;;;14.20;13.50;;;15.20;99.90;;;;;;4916642;29;20497;-84
2023/05/13 07:31:11;;;;;;;14.10;13.50;;;15.30;99.90;;;;;;4916864;29;20458;-85
2023/05/13 07:33:37;;;;;;;13.53;13.00;;;15.50;99.90;;;;;;4921551;29;20469;-83
2023/05/13 07:36:05;;;;;;;14.00;13.40;;;15.60;99.90;;;;;;4935604;29;20915;-84
2023/05/13 07:38:32;;;;;;;14.03;13.33;;;15.50;99.90;;;;;;4935809;29;20499;-83
2023/05/13 07:41:00;;;;;;;14.43;13.57;;;15.50;99.90;;;;;;4935761;29;20453;-81
2023/05/13 07:43:27;;;;;;;14.20;13.37;;;15.80;99.90;;;;;;4935498;29;20582;-85
2023/05/13 07:45:53;;;;;;;13.80;12.80;;;15.50;99.90;;;;;;4935913;29;20482;-85
2023/05/13 07:48:20;;;;;;;12.57;11.87;;;15.70;99.90;;;;;;4935445;29;20453;-83
2023/05/13 07:50:47;;;;;;;12.40;11.70;;;15.80;99.90;;;;;;4935810;29;20544;-83
2023/05/13 07:53:13;;;;;;;13.97;13.17;;;15.60;99.90;;;;;;4935848;29;20466;-81
2023/05/13 07:55:40;;;;;;;14.80;14.20;;;15.80;99.90;;;;;;4936212;29;20852;-81
2023/05/13 07:58:08;;;;;;;14.67;13.80;;;15.80;99.90;;;;;;4935756;29;20948;-81
2023/05/13 08:00:35;;;;;;;15.17;14.47;;;15.50;99.90;;;;;;4936801;29;20457;-83
2023/05/13 08:03:01;;;;;;;16.80;15.60;;;15.60;99.90;;;;;;4936724;29;20485;-83
2023/05/13 08:05:28;;;;;;;13.87;13.27;;;15.80;99.90;;;;;;4938679;29;20485;-82
2023/05/13 08:07:55;;;;;;;12.20;11.70;;;15.30;99.90;;;;;;4938674;29;20446;-84
2023/05/13 08:10:21;;;;;;;13.90;13.20;;;15.50;99.90;;;;;;4937319;29;20485;-84
2023/05/13 08:12:52;;;;;;;14.83;14.13;;;15.80;99.90;;;;;;4935586;29;20457;-82
2023/05/13 08:15:20;;;;;;;13.90;13.23;;;15.30;99.90;;;;;;4936082;29;20453;-82
2023/05/13 08:17:47;;;;;;;14.10;13.37;;;15.30;99.90;;;;;;4937150;29;20501;-83
2023/05/13 08:20:14;;;;;;;14.67;13.97;;;15.00;99.90;;;;;;4935289;29;20457;-82
2023/05/13 08:22:42;;;;;;;13.17;12.57;;;15.00;99.90;;;;;;4935812;29;21023;-84
2023/05/13 08:25:10;;;;;;;14.23;13.43;;;15.10;99.90;;;;;;4935700;29;20934;-83
2023/05/13 08:27:36;;;;;;;13.60;13.00;;;15.10;99.90;;;;;;4935636;29;20750;-84
2023/05/13 08:30:03;;;;;;;13.33;12.83;;;15.00;99.90;;;;;;4935438;29;20552;-84
2023/05/13 08:32:32;;;;;;;14.40;13.60;;;15.50;99.90;;;;;;4935075;29;20461;-83
2023/05/13 08:35:00;;;;;;;12.53;11.83;;;15.70;99.90;;;;;;4935158;29;20532;-82
2023/05/13 08:37:27;;;;;;;13.60;12.90;;;15.30;99.90;;;;;;4935392;29;20461;-83
2023/05/13 08:39:54;;;;;;;12.70;12.00;;;15.10;99.90;;;;;;4935274;29;21038;-83
2023/05/13 08:42:22;;;;;;;12.77;12.07;;;15.20;99.90;;;;;;4935976;29;20455;-84
2023/05/13 08:44:51;;;;;;;12.23;11.63;;;15.20;99.90;;;;;;4934902;29;20887;-84
2023/05/13 08:47:26;;;;;;;13.87;13.03;;;15.20;99.90;;;;;;4935206;29;20513;-83
2023/05/13 08:49:55;;;;;;;13.30;12.60;;;15.40;99.90;;;;;;4934771;29;20515;-83
2023/05/13 08:52:22;;;;;;;13.40;12.47;;;15.30;99.90;;;;;;4935058;29;20496;-82
2023/05/13 08:54:49;;;;;;;14.70;13.80;;;15.20;99.90;;;;;;4934714;29;20532;-82
2023/05/13 08:57:16;;;;;;;14.23;13.53;;;15.10;99.90;;;;;;4936004;29;20517;-83
2023/05/13 08:59:43;;;;;;;15.33;14.37;;;15.10;99.90;;;;;;4940972;29;20434;-83
2023/05/13 09:02:10;;;;;;;13.57;12.67;;;15.20;99.90;;;;;;4956650;29;20449;-83
2023/05/13 09:04:40;;;;;;;13.90;13.30;;;15.60;99.90;;;;;;4958741;29;20449;-85
2023/05/13 09:07:09;;;;;;;13.20;12.50;;;15.60;99.90;;;;;;4958364;29;20583;-83
2023/05/13 09:09:36;;;;;;;13.70;12.80;;;15.70;99.90;;;;;;4954553;29;20481;-83
2023/05/13 09:12:03;;;;;;;14.03;13.10;;;15.90;99.90;;;;;;4938020;29;20457;-85
2023/05/13 09:14:31;;;;;;;12.77;12.07;;;15.90;99.90;;;;;;4935082;29;20464;-81
2023/05/13 09:16:58;;;;;;;13.47;12.87;;;15.90;99.90;;;;;;4934762;29;20971;-84
2023/05/13 09:19:25;;;;;;;13.33;12.63;;;16.20;99.90;;;;;;4934566;29;20454;-82
2023/05/13 09:21:52;;;;;;;13.10;12.50;;;16.30;99.90;;;;;;4934610;29;20992;-83
2023/05/13 09:24:21;;;;;;;13.90;13.20;;;16.70;99.90;;;;;;4934018;29;20482;-83
2023/05/13 09:26:49;;;;;;;13.67;12.83;;;16.90;99.90;;;;;;4933848;29;20458;-84
2023/05/13 09:29:18;;;;;;;12.70;12.20;;;16.80;99.90;;;;;;4934026;29;20453;-80
2023/05/13 09:31:46;;;;;;;13.00;12.40;;;16.90;99.90;;;;;;4933722;29;20932;-84
2023/05/13 09:34:12;;;;;;;13.27;12.40;;;16.90;99.90;;;;;;4933649;29;20461;-85
2023/05/13 09:36:40;;;;;;;12.83;12.23;;;17.00;99.90;;;;;;4933493;29;20458;-84
2023/05/13 09:39:07;;;;;;;14.10;13.47;;;17.20;99.90;;;;;;4933709;29;21035;-82
2023/05/13 09:41:35;;;;;;;13.43;12.70;;;16.80;99.90;;;;;;4933588;29;20449;-84
2023/05/13 09:44:03;;;;;;;12.60;12.00;;;16.90;99.90;;;;;;4933431;29;20465;-83
2023/05/13 09:46:32;;;;;;;13.37;12.57;;;17.00;99.90;;;;;;4934042;29;20454;-85
2023/05/13 09:49:00;;;;;;;13.07;12.27;;;16.90;99.90;;;;;;4933550;29;20533;-85
2023/05/13 09:51:27;;;;;;;11.93;11.43;;;17.60;99.90;;;;;;4933227;29;20493;-84
2023/05/13 09:53:55;;;;;;;12.40;11.70;;;18.10;99.90;;;;;;4933924;29;20540;-84
2023/05/13 09:56:23;;;;;;;13.37;12.77;;;18.30;99.90;;;;;;4933617;29;20512;-84
2023/05/13 09:58:55;;;;;;;12.67;12.07;;;18.60;99.90;;;;;;4931461;29;20516;-83
2023/05/13 10:01:22;;;;;;;12.87;12.27;;;18.10;99.90;;;;;;4933520;29;20458;-83
2023/05/13 10:03:49;;;;;;;14.43;13.70;;;18.50;99.90;;;;;;4933036;29;20461;-83
2023/05/13 10:06:17;;;;;;;11.60;11.10;;;18.90;99.90;;;;;;4932940;29;21003;-84
2023/05/13 10:08:46;;;;;;;11.20;10.70;;;18.20;99.90;;;;;;4933082;29;20465;-83
2023/05/13 10:11:14;;;;;;;11.80;11.30;;;17.80;99.90;;;;;;4932946;29;21038;-83
2023/05/13 10:13:43;;;;;;;10.90;10.40;;;17.80;99.90;;;;;;4933256;29;20517;-82
2023/05/13 10:16:11;;;;;;;11.83;11.23;;;17.90;99.90;;;;;;4933343;29;20464;-84
2023/05/13 10:18:38;;;;;;;11.83;11.33;;;18.50;99.90;;;;;;4932934;29;20512;-85
2023/05/13 10:21:05;;;;;;;11.17;10.77;;;18.10;99.90;;;;;;4933648;29;20445;-79
2023/05/13 10:23:33;;;;;;;12.10;11.60;;;18.20;99.90;;;;;;4933071;29;20456;-83
2023/05/13 10:26:01;;;;;;;11.90;11.40;;;17.90;99.90;;;;;;4933428;29;20545;-83
2023/05/13 10:28:28;;;;;;;11.30;10.83;;;17.80;99.90;;;;;;4933115;29;20454;-83
2023/05/13 10:30:54;;;;;;;10.30;9.90;;;17.90;99.90;;;;;;4933938;29;20903;-83
2023/05/13 10:33:23;;;;;;;10.30;9.90;;;18.00;99.90;;;;;;4932976;29;20544;-83
2023/05/13 10:36:00;;;;;;;11.07;10.57;;;17.70;99.90;;;;;;4950114;29;20827;-84
2023/05/13 10:38:44;;;;;;;11.07;10.67;;;17.70;99.90;;;;;;4952284;29;20456;-84
2023/05/13 10:41:26;;;;;;;10.37;9.77;;;17.70;99.90;;;;;;4952312;29;20879;-83
2023/05/13 10:43:57;;;;;;;9.53;9.13;;;17.50;99.90;;;;;;4952230;29;20467;-83
2023/05/13 10:46:24;;;;;;;9.97;9.57;;;17.40;99.90;;;;;;4953229;29;20880;-85
2023/05/13 10:48:56;;;;;;;11.20;10.80;;;17.60;99.90;;;;;;4952671;29;20456;-84
2023/05/13 10:51:24;;;;;;;11.43;10.93;;;17.80;99.90;;;;;;4952789;29;20488;-83
2023/05/13 10:53:53;;;;;;;10.37;9.97;;;17.90;99.90;;;;;;4953010;29;20865;-86
2023/05/13 10:56:21;;;;;;;12.73;12.20;;;18.00;99.90;;;;;;4952832;29;20448;-85
2023/05/13 10:58:58;;;;;;;12.10;11.60;;;18.00;99.90;;;;;;4952791;29;20457;-84
2023/05/13 11:01:28;;;;;;;12.00;11.47;;;18.10;99.90;;;;;;4953141;29;20535;-81
2023/05/13 11:03:58;;;;;;;11.83;11.23;;;18.50;99.90;;;;;;4952932;28;20563;-79
2023/05/13 11:06:29;;;;;;;13.77;13.07;;;18.70;99.90;;;;;;4954589;29;20484;-85
2023/05/13 11:08:55;;;;;;;12.87;12.17;;;18.80;99.90;;;;;;4954549;29;20453;-83
2023/05/13 11:11:29;;;;;;;12.30;11.80;;;18.80;99.90;;;;;;4955218;29;20488;-85
2023/05/13 11:14:05;;;;;;;13.00;12.40;;;19.00;99.90;;;;;;4954028;29;20456;-85
2023/05/13 11:16:33;;;;;;;14.20;13.60;;;19.30;99.90;;;;;;4952980;29;20456;-84
2023/05/13 11:19:02;;;;;;;15.13;13.60;;;19.20;99.90;;;;;;4951988;29;20448;-85
2023/05/13 11:21:30;;;;;;;13.03;12.43;;;19.30;99.90;;;;;;4951786;29;20605;-85
2023/05/13 11:23:58;;;;;;;14.57;13.87;;;19.00;99.90;;;;;;4954495;29;20490;-84
2023/05/13 11:26:25;;;;;;;14.47;13.77;;;18.90;99.90;;;;;;4955195;29;20519;-84
2023/05/13 11:29:00;;;;;;;14.50;13.80;;;18.80;99.90;;;;;;4943819;29;20563;-84
2023/05/13 11:31:28;;;;;;;12.83;12.20;;;18.80;99.90;;;;;;4936047;29;20487;-85
2023/05/13 11:34:15;;;;;;;14.23;13.27;;;18.40;99.90;;;;;;4935864;29;20454;-83
2023/05/13 11:36:44;;;;;;;13.57;12.93;;;18.30;99.90;;;;;;4936135;29;20445;-85
2023/05/13 11:39:14;;;;;;;14.70;14.00;;;18.00;99.90;;;;;;4936041;29;20548;-84
2023/05/13 11:41:44;;;;;;;12.40;11.90;;;18.00;99.90;;;;;;4936040;29;20446;-84
2023/05/13 11:44:12;;;;;;;12.07;11.57;;;18.00;99.90;;;;;;4940087;29;20949;-86
2023/05/13 11:46:48;;;;;;;13.40;12.80;;;17.80;99.90;;;;;;4938022;29;20464;-83
2023/05/13 11:49:35;;;;;;;13.50;12.80;;;17.80;99.90;;;;;;4935923;29;20873;-83
2023/05/13 11:52:03;;;;;;;12.50;11.90;;;17.50;99.90;;;;;;4935247;29;20999;-84
2023/05/13 11:54:29;;;;;;;13.80;13.20;;;17.80;99.90;;;;;;4934061;29;20548;-84
2023/05/13 11:56:56;;;;;;;12.60;11.93;;;18.10;99.90;;;;;;4935269;29;20461;-83
2023/05/13 11:59:23;;;;;;;15.43;14.53;;;18.20;99.90;;;;;;4935547;29;20468;-82
2023/05/13 12:01:59;;;;;;;14.10;13.40;;;18.30;99.90;;;;;;4935306;29;20947;-82
2023/05/13 12:04:28;;;;;;;13.20;12.60;;;18.20;99.90;;;;;;4934957;29;20552;-82
2023/05/13 12:06:56;;;;;;;13.07;12.47;;;18.00;99.90;;;;;;4935143;29;20540;-85
2023/05/13 12:09:23;;;;;;;12.70;12.10;;;18.20;99.90;;;;;;4935560;29;20458;-83
2023/05/13 12:11:51;;;;;;;13.07;12.17;;;17.90;99.90;;;;;;4930211;29;20484;-84
2023/05/13 12:14:18;;;;;;;12.03;11.53;;;17.50;99.90;;;;;;4935218;29;20508;-84
2023/05/13 12:16:45;;;;;;;12.80;12.20;;;17.60;99.90;;;;;;4935319;29;20508;-84
2023/05/13 12:19:12;;;;;;;12.40;11.90;;;17.90;99.90;;;;;;4935131;29;20516;-84
2023/05/13 12:21:39;;;;;;;12.93;12.20;;;18.00;99.90;;;;;;4935341;29;20453;-80
2023/05/13 12:24:18;;;;;;;13.20;12.70;;;18.20;99.90;;;;;;4935200;29;20457;-84
2023/05/13 12:26:45;;;;;;;13.07;12.47;;;18.80;99.90;;;;;;4935735;29;20728;-84
2023/05/13 12:29:12;;;;;;;13.43;12.90;;;18.90;99.90;;;;;;4935522;29;20458;-83
2023/05/13 12:31:38;;;;;;;13.40;12.80;;;18.90;99.90;;;;;;4941644;29;21073;-82
2023/05/13 12:34:06;;;;;;;12.40;11.90;;;19.10;99.90;;;;;;4956113;29;20529;-85
2023/05/13 12:36:37;;;;;;;13.37;12.70;;;18.90;99.90;;;;;;4959879;28;20438;-85
2023/05/13 12:39:05;;;;;;;13.03;12.47;;;18.90;99.90;;;;;;4959404;28;20443;-85
2023/05/13 12:41:34;;;;;;;12.60;12.10;;;18.60;99.90;;;;;;4957374;29;20482;-85
2023/05/13 12:44:02;;;;;;;13.10;12.60;;;18.80;99.90;;;;;;4937042;29;20461;-79
2023/05/13 12:46:30;;;;;;;12.93;12.40;;;19.10;99.90;;;;;;4934929;29;20449;-80
2023/05/13 12:48:58;;;;;;;12.60;12.10;;;19.50;99.90;;;;;;4934761;29;20650;-79
2023/05/13 12:51:26;;;;;;;12.80;12.20;;;20.00;99.90;;;;;;4934457;29;20552;-80
2023/05/13 12:53:53;;;;;;;12.43;11.93;;;20.50;99.10;;;;;;4934449;29;20520;-81
2023/05/13 12:56:21;;;;;;;12.00;11.50;;;21.00;97.90;;;;;;4934304;29;20512;-79
2023/05/13 12:58:50;;;;;;;12.60;12.00;;;21.40;97.50;;;;;;4934196;29;20477;-80
2023/05/13 13:01:17;;;;;;;12.57;12.00;;;20.80;97.70;;;;;;4934085;29;20504;-79
2023/05/13 13:03:44;;;;;;;12.80;12.30;;;21.60;96.40;;;;;;4934305;29;21016;-77
2023/05/13 13:06:12;;;;;;;13.40;12.90;;;23.70;94.10;;;;;;4933758;29;21019;-80
2023/05/13 13:08:39;;;;;;;12.67;12.17;;;23.70;92.60;;;;;;4934433;29;20458;-84
2023/05/13 13:11:06;;;;;;;13.00;12.40;;;23.90;93.60;;;;;;4938468;29;20614;-84
2023/05/13 13:13:33;;;;;;;12.63;12.13;;;21.10;94.70;;;;;;4936040;29;20457;-85
2023/05/13 13:16:01;;;;;;;13.40;12.70;;;20.20;97.00;;;;;;4930472;29;20481;-85
2023/05/13 13:18:28;;;;;;;14.00;13.40;;;19.50;98.60;;;;;;4934756;29;20488;-85
2023/05/13 13:20:55;;;;;;;12.93;12.33;;;19.10;99.70;;;;;;4934763;29;20453;-84
2023/05/13 13:23:21;;;;;;;13.20;12.60;;;19.00;99.90;;;;;;4934873;29;20461;-84
2023/05/13 13:25:48;;;;;;;12.87;12.37;;;19.00;99.90;;;;;;4935490;29;20453;-84
2023/05/13 13:28:15;;;;;;;12.53;12.03;;;18.80;99.90;;;;;;4935149;29;20517;-78
2023/05/13 13:30:45;;;;;;;11.50;11.10;;;19.00;99.90;;;;;;4935860;29;20489;-84
2023/05/13 13:33:14;;;;;;;11.47;10.97;;;18.80;99.90;;;;;;4934008;29;20460;-85
2023/05/13 13:35:40;;;;;;;13.77;12.87;;;18.70;99.90;;;;;;4934034;29;20519;-85
2023/05/13 13:38:08;;;;;;;13.70;13.00;;;18.80;99.90;;;;;;4937913;29;20533;-85
2023/05/13 13:40:35;;;;;;;14.17;13.63;;;18.70;99.90;;;;;;4934158;29;20528;-78
2023/05/13 13:43:02;;;;;;;12.50;12.00;;;18.50;99.90;;;;;;4933259;29;20453;-82
2023/05/13 13:45:29;;;;;;;12.57;12.07;;;18.60;99.90;;;;;;4933331;29;20454;-82
2023/05/13 13:47:55;;;;;;;12.63;12.13;;;17.60;99.90;;;;;;4933566;29;20461;-83
2023/05/13 13:50:24;;;;;;;12.70;12.10;;;18.40;99.90;;;;;;4933732;29;20456;-84
2023/05/13 13:52:51;;;;;;;13.07;12.27;;;18.60;99.90;;;;;;4933593;29;20560;-82
2023/05/13 13:55:18;;;;;;;12.63;12.13;;;18.30;99.90;;;;;;4934378;29;20970;-84
2023/05/13 13:57:44;;;;;;;12.03;11.53;;;18.40;99.90;;;;;;4939304;29;20474;-83
2023/05/13 14:00:13;;;;;;;12.63;12.13;;;17.90;99.90;;;;;;4937073;29;20457;-84
2023/05/13 14:02:40;;;;;;;13.80;13.20;;;17.60;99.90;;;;;;4936008;29;20468;-83
2023/05/13 14:05:07;;;;;;;12.07;11.57;;;17.40;99.90;;;;;;4933128;29;20584;-84
2023/05/13 14:07:36;;;;;;;13.40;12.60;;;17.20;99.90;;;;;;4933907;29;20449;-84
2023/05/13 14:10:03;;;;;;;12.40;11.80;;;17.10;99.90;;;;;;4933433;29;20469;-83
2023/05/13 14:12:29;;;;;;;14.40;13.50;;;17.00;99.90;;;;;;4935695;29;20509;-85
2023/05/13 14:15:03;;;;;;;13.50;12.90;;;16.80;99.90;;;;;;4934185;29;20488;-86
2023/05/13 14:17:30;;;;;;;14.00;13.23;;;16.60;99.90;;;;;;4932333;29;20786;-86
2023/05/13 14:19:56;;;;;;;13.20;12.60;;;16.40;99.90;;;;;;4933818;29;20947;-86
2023/05/13 14:22:23;;;;;;;13.63;13.00;;;16.30;99.90;;;;;;4934417;29;20460;-86
2023/05/13 14:24:52;;;;;;;14.63;13.93;;;16.20;99.90;;;;;;4934567;29;20458;-85
2023/05/13 14:27:20;;;;;;;14.90;14.07;;;16.50;99.90;;;;;;4935232;29;20955;-84
2023/05/13 14:29:48;;;;;;;13.83;13.13;;;16.30;99.90;;;;;;4933703;29;20460;-84
2023/05/13 14:32:14;;;;;;;12.83;12.27;;;16.30;99.90;;;;;;4933675;29;20599;-85
2023/05/13 14:34:41;;;;;;;14.87;14.07;;;16.30;99.90;;;;;;4933987;29;20485;-85
2023/05/13 14:37:08;;;;;;;14.87;14.13;;;16.50;99.90;;;;;;4933995;29;20449;-84
2023/05/13 14:39:35;;;;;;;13.97;13.27;;;16.70;99.90;;;;;;4933742;29;20456;-85
2023/05/13 14:42:04;;;;;;;14.40;13.70;;;16.90;99.90;;;;;;4936469;29;20449;-85
2023/05/13 14:44:31;;;;;;;13.83;12.90;;;16.90;99.90;;;;;;4936348;29;20466;-84
2023/05/13 14:46:58;;;;;;;13.97;13.17;;;17.10;99.90;;;;;;4933791;29;20799;-86
2023/05/13 14:49:25;;;;;;;12.70;12.10;;;17.10;99.90;;;;;;4933771;29;20457;-85
2023/05/13 14:51:51;;;;;;;13.43;12.73;;;17.50;99.90;;;;;;4933985;29;20493;-84
2023/05/13 14:54:18;;;;;;;13.80;13.10;;;17.40;99.90;;;;;;4933318;29;20512;-85
2023/05/13 14:56:45;;;;;;;13.33;12.63;;;17.70;99.90;;;;;;4934133;29;20536;-84
2023/05/13 14:59:13;;;;;;;13.07;12.47;;;17.80;99.90;;;;;;4935761;29;20465;-80
2023/05/13 15:01:40;;;;;;;14.53;13.83;;;18.20;99.90;;;;;;4937443;29;20453;-84
2023/05/13 15:04:06;;;;;;;15.20;14.00;;;18.20;99.90;;;;;;4937398;29;20553;-85
2023/05/13 15:06:33;;;;;;;14.00;13.30;;;18.50;99.90;;;;;;4936994;29;20493;-85
2023/05/13 15:09:00;;;;;;;13.90;13.30;;;18.70;99.90;;;;;;4937347;29;20457;-85
2023/05/13 15:11:27;;;;;;;13.40;12.80;;;18.80;99.90;;;;;;4937343;29;21070;-86
2023/05/13 15:13:54;;;;;;;13.73;13.03;;;18.60;99.90;;;;;;4937163;29;20481;-84
2023/05/13 15:16:22;;;;;;;13.83;13.23;;;18.80;99.90;;;;;;4937395;29;20496;-84
2023/05/13 15:18:49;;;;;;;12.80;12.20;;;18.80;99.90;;;;;;4936910;29;20453;-85
2023/05/13 15:21:16;;;;;;;12.73;12.23;;;18.90;99.90;;;;;;4937141;29;20923;-84
2023/05/13 15:23:43;;;;;;;13.40;12.80;;;18.90;99.90;;;;;;4936867;29;20504;-84
2023/05/13 15:26:09;;;;;;;14.17;13.30;;;18.50;99.90;;;;;;4937132;29;20803;-85
2023/05/13 15:28:36;;;;;;;13.63;13.03;;;18.20;99.90;;;;;;4938073;29;20465;-83
2023/05/13 15:31:03;;;;;;;13.73;13.13;;;18.40;99.90;;;;;;4940565;29;20460;-83
2023/05/13 15:33:32;;;;;;;14.57;13.87;;;18.60;99.90;;;;;;4960507;29;20436;-86
2023/05/13 15:35:59;;;;;;;14.10;13.50;;;18.50;99.90;;;;;;4961339;29;20485;-85